createdAt,value
2023-05-25T00:02:04.693Z,94.74
2023-05-25T00:04:34.629Z,95.34
2023-05-25T00:07:02.822Z,96.40
2023-05-25T00:09:30.906Z,95.20
2023-05-25T00:11:59.896Z,95.23
2023-05-25T00:14:27.968Z,94.85
2023-05-25T00:16:56.015Z,94.67
2023-05-25T00:19:26.107Z,93.88
2023-05-25T00:21:54.763Z,95.13
2023-05-25T00:24:22.745Z,96.40
2023-05-25T00:26:50.757Z,96.28
2023-05-25T00:29:18.695Z,96.00
2023-05-25T00:31:46.708Z,96.79
2023-05-25T00:34:14.610Z,96.42
2023-05-25T00:36:44.244Z,96.72
2023-05-25T00:39:12.173Z,97.39
2023-05-25T00:41:41.794Z,97.64
2023-05-25T00:44:10.046Z,97.04
2023-05-25T00:46:38.967Z,97.71
2023-05-25T00:49:07.099Z,98.33
2023-05-25T00:51:36.552Z,98.46
2023-05-25T00:54:06.206Z,100.00
2023-05-25T00:56:39.423Z,100.00
2023-05-25T00:59:09.263Z,100.00
2023-05-25T01:01:40.414Z,100.00
2023-05-25T01:04:10.685Z,100.00
2023-05-25T01:06:40.848Z,100.00
2023-05-25T01:09:12.464Z,100.00
2023-05-25T01:11:43.726Z,100.00
2023-05-25T01:14:12.315Z,100.00
2023-05-25T01:16:41.589Z,100.00
2023-05-25T01:19:10.884Z,100.00
2023-05-25T01:21:46.095Z,100.00
2023-05-25T01:24:22.469Z,100.00
2023-05-25T01:26:57.263Z,100.00
2023-05-25T01:29:27.319Z,100.00
2023-05-25T01:31:56.733Z,100.00
2023-05-25T01:34:26.115Z,100.00
2023-05-25T01:36:55.992Z,100.00
2023-05-25T01:39:25.206Z,100.00
2023-05-25T01:41:53.223Z,100.00
2023-05-25T01:44:21.977Z,100.00
2023-05-25T01:46:59.863Z,100.00
2023-05-25T01:49:30.665Z,100.00
2023-05-25T01:52:08.600Z,100.00
2023-05-25T01:54:39.638Z,100.00
2023-05-25T01:57:10.991Z,100.00
2023-05-25T01:59:39.777Z,100.00
2023-05-25T02:02:08.748Z,100.00
2023-05-25T02:04:37.040Z,100.00
2023-05-25T02:07:06.861Z,100.00
2023-05-25T02:09:34.854Z,100.00
2023-05-25T02:12:02.853Z,100.00
2023-05-25T02:14:30.980Z,100.00
2023-05-25T02:17:02.131Z,100.00
2023-05-25T02:19:30.376Z,100.00
2023-05-25T02:21:58.354Z,100.00
2023-05-25T02:24:27.803Z,100.00
2023-05-25T02:26:55.829Z,100.00
2023-05-25T02:29:23.811Z,100.00
2023-05-25T02:31:51.863Z,100.00
2023-05-25T02:34:19.896Z,100.00
2023-05-25T02:36:47.847Z,100.00
2023-05-25T02:39:15.812Z,100.00
2023-05-25T02:41:45.117Z,100.00
2023-05-25T02:44:13.075Z,100.00
2023-05-25T02:46:41.077Z,100.00
2023-05-25T02:49:09.064Z,100.00
2023-05-25T02:51:37.132Z,100.00
2023-05-25T02:54:05.276Z,100.00
2023-05-25T02:56:33.345Z,100.00
2023-05-25T02:59:02.619Z,100.00
2023-05-25T03:01:31.190Z,100.00
2023-05-25T03:03:59.574Z,100.00
2023-05-25T03:06:27.802Z,100.00
2023-05-25T03:08:55.716Z,100.00
2023-05-25T03:11:23.768Z,100.00
2023-05-25T03:13:52.873Z,100.00
2023-05-25T03:16:23.389Z,100.00
2023-05-25T03:18:51.463Z,100.00
2023-05-25T03:21:19.439Z,100.00
2023-05-25T03:23:47.397Z,100.00
2023-05-25T03:26:15.788Z,100.00
2023-05-25T03:28:43.873Z,100.00
2023-05-25T03:31:12.222Z,100.00
2023-05-25T03:33:41.495Z,99.96
2023-05-25T03:36:09.972Z,99.24
2023-05-25T03:38:38.151Z,98.59
2023-05-25T03:41:06.436Z,98.11
2023-05-25T03:43:34.411Z,98.00
2023-05-25T03:46:02.497Z,97.99
2023-05-25T03:48:30.808Z,98.20
2023-05-25T03:51:00.183Z,97.71
2023-05-25T03:53:28.229Z,97.66
2023-05-25T03:55:56.690Z,97.66
2023-05-25T03:58:24.701Z,97.26
2023-05-25T04:00:52.968Z,97.11
2023-05-25T04:03:21.826Z,96.88
2023-05-25T04:05:50.127Z,96.85
2023-05-25T04:08:20.738Z,96.16
2023-05-25T04:10:49.065Z,94.88
2023-05-25T04:13:17.248Z,95.62
2023-05-25T04:15:45.444Z,94.89
2023-05-25T04:18:13.668Z,93.48
2023-05-25T04:20:41.959Z,92.90
2023-05-25T04:23:09.973Z,92.40
2023-05-25T04:25:39.342Z,92.85
2023-05-25T04:28:08.573Z,92.79
2023-05-25T04:30:36.870Z,92.95
2023-05-25T04:33:05.050Z,92.73
2023-05-25T04:35:33.161Z,92.34
2023-05-25T04:38:03.114Z,91.70
2023-05-25T04:40:33.266Z,92.43
2023-05-25T04:43:03.543Z,91.07
2023-05-25T04:45:33.316Z,90.10
2023-05-25T04:48:01.670Z,88.66
2023-05-25T04:50:30.174Z,88.16
2023-05-25T04:52:58.499Z,88.27
2023-05-25T04:55:26.486Z,87.97
2023-05-25T04:57:55.239Z,86.83
2023-05-25T05:00:24.966Z,85.34
2023-05-25T05:02:54.094Z,85.36
2023-05-25T05:05:22.206Z,84.51
2023-05-25T05:07:50.195Z,83.66
2023-05-25T05:10:18.582Z,83.67
2023-05-25T05:12:46.654Z,83.95
2023-05-25T05:15:14.805Z,82.88
2023-05-25T05:17:44.133Z,83.63
2023-05-25T05:20:12.764Z,84.49
2023-05-25T05:22:41.244Z,83.47
2023-05-25T05:25:09.917Z,82.88
2023-05-25T05:27:38.008Z,83.24
2023-05-25T05:30:07.697Z,82.81
2023-05-25T05:32:35.753Z,81.00
2023-05-25T05:35:05.608Z,78.93
2023-05-25T05:37:33.535Z,79.93
2023-05-25T05:40:01.526Z,79.67
2023-05-25T05:42:29.568Z,79.32
2023-05-25T05:44:57.611Z,80.59
2023-05-25T05:47:25.707Z,81.96
2023-05-25T05:49:53.774Z,83.11
2023-05-25T05:52:23.615Z,83.31
2023-05-25T05:54:51.559Z,82.82
2023-05-25T05:57:19.593Z,80.62
2023-05-25T05:59:47.668Z,80.01
2023-05-25T06:02:15.603Z,78.23
2023-05-25T06:04:43.623Z,77.33
2023-05-25T06:07:11.735Z,76.88
2023-05-25T06:09:41.100Z,76.62
2023-05-25T06:12:10.157Z,75.73
2023-05-25T06:14:38.173Z,74.82
2023-05-25T06:17:06.788Z,76.40
2023-05-25T06:19:34.916Z,76.17
2023-05-25T06:22:02.920Z,74.48
2023-05-25T06:24:31.562Z,71.78
2023-05-25T06:27:02.324Z,72.13
2023-05-25T06:29:30.587Z,72.57
2023-05-25T06:31:58.594Z,72.06
2023-05-25T06:34:26.820Z,72.79
2023-05-25T06:36:54.839Z,72.82
2023-05-25T06:39:22.883Z,71.26
2023-05-25T06:41:51.362Z,70.90
2023-05-25T06:44:20.748Z,70.14
2023-05-25T06:46:48.913Z,69.56
2023-05-25T06:49:16.844Z,69.52
2023-05-25T06:51:45.143Z,69.59
2023-05-25T06:54:15.036Z,68.81
2023-05-25T06:56:43.068Z,67.20
2023-05-25T06:59:11.140Z,67.20
2023-05-25T07:01:41.200Z,65.39
2023-05-25T07:04:09.271Z,64.58
2023-05-25T07:06:37.296Z,64.52
2023-05-25T07:09:05.486Z,64.95
2023-05-25T07:11:33.496Z,64.13
2023-05-25T07:14:01.484Z,63.41
2023-05-25T07:16:29.595Z,61.76
2023-05-25T07:19:00.431Z,59.80
2023-05-25T07:21:28.690Z,59.54
2023-05-25T07:23:56.931Z,59.15
2023-05-25T07:26:25.791Z,58.63
2023-05-25T07:28:53.768Z,57.39
2023-05-25T07:31:22.514Z,57.19
2023-05-25T07:33:50.902Z,57.26
2023-05-25T07:36:20.571Z,58.42
2023-05-25T07:38:48.878Z,57.52
2023-05-25T07:41:17.159Z,56.74
2023-05-25T07:43:45.601Z,57.05
2023-05-25T07:46:13.670Z,57.02
2023-05-25T07:48:41.616Z,56.66
2023-05-25T07:51:09.790Z,56.12
2023-05-25T07:53:39.108Z,56.46
2023-05-25T07:56:10.458Z,56.19
2023-05-25T07:58:38.704Z,56.84
2023-05-25T08:01:06.895Z,57.31
2023-05-25T08:03:47.974Z,58.38
2023-05-25T08:06:17.978Z,58.53
2023-05-25T08:08:47.418Z,59.82
2023-05-25T08:11:16.442Z,59.00
2023-05-25T08:13:44.479Z,59.36
2023-05-25T08:16:12.422Z,59.51
2023-05-25T08:18:41.022Z,59.24
2023-05-25T08:21:08.995Z,58.82
2023-05-25T08:23:42.600Z,58.79
2023-05-25T08:26:31.325Z,58.25
2023-05-25T08:29:01.744Z,57.34
2023-05-25T08:31:29.670Z,57.10
2023-05-25T08:33:57.831Z,57.15
2023-05-25T08:36:26.062Z,56.66
2023-05-25T08:38:54.382Z,56.19
2023-05-25T08:41:23.718Z,56.38
2023-05-25T08:43:51.789Z,56.10
2023-05-25T08:46:30.353Z,54.61
2023-05-25T08:49:02.192Z,54.02
2023-05-25T08:51:33.952Z,53.93
2023-05-25T08:54:07.564Z,53.10
2023-05-25T08:56:42.499Z,52.98
2023-05-25T08:59:19.285Z,52.68
2023-05-25T09:01:52.619Z,52.57
2023-05-25T09:04:22.227Z,53.23
2023-05-25T09:07:05.639Z,52.16
2023-05-25T09:09:39.683Z,52.01
2023-05-25T09:12:10.209Z,51.79
2023-05-25T09:14:45.382Z,50.25
2023-05-25T09:17:14.447Z,50.03
2023-05-25T09:19:42.704Z,48.35
2023-05-25T09:22:15.957Z,47.25
2023-05-25T09:24:45.691Z,46.29
2023-05-25T09:27:19.220Z,47.25
2023-05-25T09:29:49.008Z,45.82
2023-05-25T09:32:17.350Z,45.08
2023-05-25T09:34:45.685Z,45.74
2023-05-25T09:37:14.796Z,46.22
2023-05-25T09:39:43.696Z,44.61
2023-05-25T09:42:12.008Z,43.96
2023-05-25T09:44:42.767Z,41.91
2023-05-25T09:47:11.134Z,41.07
2023-05-25T09:49:39.561Z,40.57
2023-05-25T09:52:07.971Z,40.16
2023-05-25T09:54:37.590Z,38.67
2023-05-25T09:57:06.406Z,40.46
2023-05-25T09:59:34.371Z,40.87
2023-05-25T10:02:03.815Z,40.72
2023-05-25T10:04:31.852Z,41.79
2023-05-25T10:07:01.972Z,41.74
2023-05-25T10:09:31.284Z,41.82
2023-05-25T10:12:01.451Z,42.16
2023-05-25T10:14:30.913Z,39.94
2023-05-25T10:17:00.638Z,40.51
2023-05-25T10:19:34.615Z,41.17
2023-05-25T10:22:08.224Z,41.35
2023-05-25T10:24:44.335Z,40.94
2023-05-25T10:29:53.984Z,42.50
2023-05-25T10:32:22.359Z,40.28
2023-05-25T10:34:53.475Z,40.40
2023-05-25T10:37:22.053Z,39.88
2023-05-25T10:39:51.813Z,41.89
2023-05-25T10:42:20.029Z,42.59
2023-05-25T10:44:48.196Z,43.31
2023-05-25T10:47:17.464Z,43.99
2023-05-25T10:49:58.231Z,44.41
2023-05-25T10:52:29.820Z,45.54
2023-05-25T10:54:58.794Z,45.61
2023-05-25T10:57:27.305Z,46.41
2023-05-25T11:00:01.720Z,48.11
2023-05-25T11:02:32.190Z,51.05
2023-05-25T11:05:35.907Z,50.99
2023-05-25T11:08:06.456Z,53.06
2023-05-25T11:10:54.972Z,54.46
2023-05-25T11:13:45.507Z,54.84
2023-05-25T11:16:18.772Z,52.51
2023-05-25T11:18:50.575Z,52.16
2023-05-25T11:21:43.040Z,51.81
2023-05-25T11:24:15.250Z,51.37
2023-05-25T11:26:57.896Z,51.99
2023-05-25T11:29:27.237Z,56.92
2023-05-25T11:31:56.381Z,60.60
2023-05-25T11:34:25.936Z,62.55
2023-05-25T11:37:02.212Z,62.28
2023-05-25T11:39:31.560Z,63.31
2023-05-25T11:42:05.192Z,63.41
2023-05-25T11:44:34.596Z,64.79
2023-05-25T11:47:06.057Z,65.47
2023-05-25T11:49:34.156Z,65.79
2023-05-25T11:52:07.101Z,64.86
2023-05-25T11:54:35.428Z,61.59
2023-05-25T11:57:04.803Z,60.79
2023-05-25T11:59:33.728Z,60.50
2023-05-25T12:02:05.540Z,59.21
2023-05-25T12:04:35.350Z,59.43
2023-05-25T12:07:05.522Z,59.65
2023-05-25T12:09:34.153Z,57.42
2023-05-25T12:12:04.152Z,55.97
2023-05-25T12:14:33.160Z,50.70
2023-05-25T12:17:01.327Z,48.93
2023-05-25T12:19:29.482Z,49.57
2023-05-25T12:21:57.921Z,49.69
2023-05-25T12:24:27.296Z,49.72
2023-05-25T12:26:57.647Z,47.72
2023-05-25T12:29:26.387Z,46.44
2023-05-25T12:31:54.465Z,48.08
2023-05-25T12:34:22.762Z,46.55
2023-05-25T12:36:52.859Z,47.09
2023-05-25T12:39:38.810Z,47.96
2023-05-25T12:42:13.513Z,44.96
2023-05-25T12:44:41.699Z,45.11
2023-05-25T12:47:15.088Z,44.83
2023-05-25T12:49:44.588Z,46.10
2023-05-25T12:52:13.350Z,44.88
2023-05-25T12:54:45.493Z,43.47
2023-05-25T12:57:15.209Z,43.11
2023-05-25T12:59:44.704Z,43.71
2023-05-25T13:02:14.299Z,43.64
2023-05-25T13:04:44.663Z,43.09
2023-05-25T13:07:13.062Z,47.15
2023-05-25T13:09:41.087Z,47.24
2023-05-25T13:12:11.298Z,46.51
2023-05-25T13:14:39.341Z,45.47
2023-05-25T13:17:07.377Z,46.96
2023-05-25T13:19:35.428Z,50.94
2023-05-25T13:22:03.527Z,53.41
2023-05-25T13:24:31.550Z,55.27
2023-05-25T13:26:59.565Z,56.27
2023-05-25T13:29:29.008Z,55.81
2023-05-25T13:31:57.091Z,56.88
2023-05-25T13:34:25.164Z,57.51
2023-05-25T13:36:53.206Z,58.33
2023-05-25T13:39:22.337Z,59.87
2023-05-25T13:41:50.349Z,60.70
2023-05-25T13:44:18.421Z,61.02
2023-05-25T13:46:48.603Z,60.93
2023-05-25T13:49:19.587Z,59.53
2023-05-25T13:51:47.731Z,59.56
2023-05-25T13:54:15.722Z,60.46
2023-05-25T13:56:43.796Z,60.34
2023-05-25T13:59:25.584Z,60.32
2023-05-25T14:01:56.211Z,60.13
2023-05-25T14:04:30.175Z,60.90
2023-05-25T14:09:43.401Z,62.59
2023-05-25T14:12:13.558Z,66.56
2023-05-25T14:14:42.307Z,70.84
2023-05-25T14:17:11.673Z,75.02
2023-05-25T14:19:39.721Z,77.58
2023-05-25T14:22:14.094Z,81.14
2023-05-25T14:24:42.683Z,84.84
2023-05-25T14:27:10.853Z,87.95
2023-05-25T14:29:38.930Z,89.93
2023-05-25T14:32:07.247Z,89.23
2023-05-25T14:34:36.647Z,91.36
2023-05-25T14:37:04.838Z,88.56
2023-05-25T14:39:32.837Z,86.06
2023-05-25T14:42:02.540Z,88.36
2023-05-25T14:44:30.694Z,86.67
2023-05-25T14:46:58.893Z,84.37
2023-05-25T14:49:27.777Z,81.83
2023-05-25T14:51:57.166Z,81.42
2023-05-25T14:54:25.278Z,79.82
2023-05-25T14:56:53.254Z,79.49
2023-05-25T14:59:21.320Z,78.38
2023-05-25T15:01:49.426Z,79.33
2023-05-25T15:04:17.440Z,78.89
2023-05-25T15:06:45.570Z,78.04
2023-05-25T15:09:15.918Z,80.18
2023-05-25T15:11:43.893Z,80.56
2023-05-25T15:14:11.994Z,79.46
2023-05-25T15:16:40.263Z,78.49
2023-05-25T15:19:10.664Z,79.68
2023-05-25T15:21:39.762Z,79.92
2023-05-25T15:24:07.951Z,79.13
2023-05-25T15:26:37.325Z,77.08
2023-05-25T15:29:05.315Z,76.59
2023-05-25T15:31:33.412Z,77.90
2023-05-25T15:34:01.924Z,75.86
2023-05-25T15:36:29.939Z,73.79
2023-05-25T15:38:58.022Z,75.07
2023-05-25T15:41:25.988Z,75.05
2023-05-25T15:43:58.519Z,76.41
2023-05-25T15:46:26.959Z,76.28
2023-05-25T15:48:55.091Z,75.76
2023-05-25T15:51:23.283Z,76.65
2023-05-25T15:53:51.294Z,76.62
2023-05-25T15:56:19.327Z,75.89
2023-05-25T15:58:49.441Z,75.99
2023-05-25T16:01:18.920Z,74.67
2023-05-25T16:03:46.997Z,73.57
2023-05-25T16:06:14.940Z,73.98
2023-05-25T16:08:42.842Z,74.82
2023-05-25T16:11:10.830Z,76.11
2023-05-25T16:13:38.964Z,76.69
2023-05-25T16:16:07.689Z,75.24
2023-05-25T16:18:37.334Z,75.20
2023-05-25T16:21:05.700Z,73.35
2023-05-25T16:23:33.678Z,74.47
2023-05-25T16:26:01.609Z,72.94
2023-05-25T16:28:29.704Z,70.52
2023-05-25T16:30:57.661Z,70.34
2023-05-25T16:33:25.802Z,70.64
2023-05-25T16:35:55.148Z,68.32
2023-05-25T16:38:23.120Z,69.80
2023-05-25T16:40:51.150Z,71.73
2023-05-25T16:43:19.205Z,70.58
2023-05-25T16:45:50.044Z,70.17
2023-05-25T16:48:18.033Z,70.22
2023-05-25T16:50:46.057Z,71.76
2023-05-25T16:53:15.416Z,71.25
2023-05-25T16:55:43.819Z,71.20
2023-05-25T16:58:11.974Z,71.84
2023-05-25T17:00:39.983Z,71.78
2023-05-25T17:03:07.995Z,73.97
2023-05-25T17:05:35.996Z,73.64
2023-05-25T17:08:03.869Z,74.15
2023-05-25T17:10:33.169Z,73.77
2023-05-25T17:13:01.245Z,75.20
2023-05-25T17:15:29.198Z,76.14
2023-05-25T17:17:57.121Z,76.64
2023-05-25T17:20:25.199Z,76.67
2023-05-25T17:22:53.257Z,77.05
2023-05-25T17:25:21.385Z,77.08
2023-05-25T17:27:50.760Z,77.82
2023-05-25T17:30:18.758Z,77.04
2023-05-25T17:32:47.115Z,77.32
2023-05-25T17:35:15.070Z,79.50
2023-05-25T17:37:43.091Z,79.87
2023-05-25T17:40:12.117Z,80.37
2023-05-25T17:42:40.862Z,80.70
2023-05-25T17:45:11.855Z,79.88
2023-05-25T17:47:39.932Z,80.01
2023-05-25T17:50:08.495Z,80.70
2023-05-25T17:52:36.361Z,80.60
2023-05-25T17:55:04.458Z,80.75
2023-05-25T17:57:32.451Z,81.27
2023-05-25T18:00:00.389Z,81.73
2023-05-25T18:02:30.534Z,81.67
2023-05-25T18:04:58.577Z,80.70
2023-05-25T18:07:26.548Z,80.35
2023-05-25T18:09:54.510Z,80.17
2023-05-25T18:12:22.524Z,81.89
2023-05-25T18:14:50.431Z,82.26
2023-05-25T18:17:18.555Z,81.73
2023-05-25T18:19:47.933Z,83.08
2023-05-25T18:22:15.944Z,83.81
2023-05-25T18:24:43.940Z,84.35
2023-05-25T18:27:11.868Z,84.26
2023-05-25T18:29:39.793Z,83.67
2023-05-25T18:32:08.261Z,83.99
2023-05-25T18:34:36.221Z,83.99
2023-05-25T18:37:05.807Z,86.28
2023-05-25T18:39:34.011Z,90.40
2023-05-25T18:42:02.603Z,92.25
2023-05-25T18:44:30.557Z,92.98
2023-05-25T18:46:59.143Z,93.65
2023-05-25T18:49:32.733Z,93.75
2023-05-25T18:52:01.482Z,94.75
2023-05-25T18:54:30.792Z,95.73
2023-05-25T18:56:58.783Z,96.02
2023-05-25T18:59:26.717Z,95.53
2023-05-25T19:01:54.727Z,95.37
2023-05-25T19:04:22.783Z,95.27
2023-05-25T19:06:50.941Z,94.21
2023-05-25T19:09:18.872Z,93.45
2023-05-25T19:11:48.225Z,92.74
2023-05-25T19:14:16.188Z,92.28
2023-05-25T19:16:45.959Z,91.82
2023-05-25T19:19:15.252Z,90.83
2023-05-25T19:21:43.163Z,91.16
2023-05-25T19:24:11.193Z,91.29
2023-05-25T19:26:39.310Z,90.95
2023-05-25T19:29:08.645Z,89.79
2023-05-25T19:31:36.727Z,88.83
2023-05-25T19:34:04.720Z,89.10
2023-05-25T19:36:32.917Z,89.71
2023-05-25T19:39:00.914Z,88.59
2023-05-25T19:41:28.886Z,87.50
2023-05-25T19:43:56.889Z,87.14
2023-05-25T19:46:26.307Z,87.40
2023-05-25T19:48:54.329Z,87.03
2023-05-25T19:51:22.403Z,87.17
2023-05-25T19:53:52.083Z,87.94
2023-05-25T19:56:20.048Z,88.28
2023-05-25T19:58:48.165Z,88.57
2023-05-25T20:01:16.237Z,87.74
2023-05-25T20:03:45.933Z,87.28
2023-05-25T20:06:14.070Z,86.29
2023-05-25T20:08:42.089Z,86.89
2023-05-25T20:11:10.313Z,88.25
2023-05-25T20:13:38.269Z,87.95
2023-05-25T20:16:09.995Z,87.88
2023-05-25T20:18:38.067Z,87.67
2023-05-25T20:21:07.327Z,88.44
2023-05-25T20:23:35.462Z,88.77
2023-05-25T20:26:03.446Z,87.80
2023-05-25T20:28:31.429Z,87.44
2023-05-25T20:30:59.385Z,87.14
2023-05-25T20:33:27.347Z,86.88
2023-05-25T20:35:55.327Z,87.13
2023-05-25T20:38:24.664Z,86.23
2023-05-25T20:40:52.652Z,85.41
2023-05-25T20:43:20.590Z,85.26
2023-05-25T20:45:48.841Z,85.06
2023-05-25T20:48:17.265Z,85.37
2023-05-25T20:50:45.582Z,85.39
2023-05-25T20:53:13.657Z,85.52
2023-05-25T20:55:43.154Z,85.66
2023-05-25T20:58:11.366Z,86.18
2023-05-25T21:00:39.337Z,86.23
2023-05-25T21:03:08.656Z,86.44
2023-05-25T21:05:38.150Z,86.96
2023-05-25T21:08:06.134Z,87.99
2023-05-25T21:10:34.137Z,88.88
2023-05-25T21:13:03.496Z,89.09
2023-05-25T21:15:31.803Z,89.50
2023-05-25T21:17:59.806Z,89.53
2023-05-25T21:20:27.843Z,90.53
2023-05-25T21:22:55.856Z,91.49
2023-05-25T21:25:23.933Z,91.39
2023-05-25T21:27:52.199Z,92.07
2023-05-25T21:30:21.691Z,90.88
2023-05-25T21:32:49.665Z,91.37
2023-05-25T21:35:18.234Z,91.12
2023-05-25T21:37:46.224Z,90.72
2023-05-25T21:40:14.564Z,91.57
2023-05-25T21:42:42.511Z,91.75
2023-05-25T21:45:11.053Z,91.93
2023-05-25T21:47:40.448Z,91.60
2023-05-25T21:50:08.796Z,91.67
2023-05-25T21:52:36.815Z,91.98
2023-05-25T21:55:05.079Z,92.46
2023-05-25T21:57:32.995Z,92.14
2023-05-25T22:00:00.963Z,91.89
2023-05-25T22:02:28.962Z,92.18
2023-05-25T22:04:58.429Z,92.12
2023-05-25T22:07:26.530Z,91.66
2023-05-25T22:09:54.500Z,92.12
2023-05-25T22:12:22.474Z,90.29
2023-05-25T22:14:50.455Z,90.11
2023-05-25T22:17:19.145Z,90.28
2023-05-25T22:19:55.312Z,88.97
2023-05-25T22:22:36.606Z,87.24
2023-05-25T22:25:04.751Z,86.51
2023-05-25T22:27:33.033Z,86.60
2023-05-25T22:30:01.533Z,86.22
2023-05-25T22:32:30.807Z,86.22
2023-05-25T22:34:58.849Z,85.73
2023-05-25T22:37:26.800Z,85.72
2023-05-25T22:39:56.129Z,85.45
2023-05-25T22:42:24.157Z,84.31
2023-05-25T22:44:52.435Z,84.88
2023-05-25T22:47:20.429Z,85.68
2023-05-25T22:49:48.393Z,85.79
2023-05-25T22:52:16.522Z,86.08
2023-05-25T22:54:44.468Z,86.02
2023-05-25T22:57:13.808Z,85.84
2023-05-25T22:59:41.709Z,85.55
2023-05-25T23:02:09.785Z,87.06
2023-05-25T23:04:37.810Z,87.66
2023-05-25T23:07:06.245Z,87.88
2023-05-25T23:09:34.241Z,90.18
2023-05-25T23:12:02.357Z,92.10
2023-05-25T23:14:32.617Z,93.64
2023-05-25T23:17:00.579Z,94.19
2023-05-25T23:19:28.619Z,93.94
2023-05-25T23:21:58.583Z,93.32
2023-05-25T23:24:26.557Z,93.31
2023-05-25T23:26:54.537Z,91.36
2023-05-25T23:29:22.528Z,90.64
2023-05-25T23:31:51.948Z,90.32
2023-05-25T23:34:19.976Z,89.38
2023-05-25T23:36:47.901Z,89.13
2023-05-25T23:39:15.931Z,90.07
2023-05-25T23:41:43.899Z,89.52
2023-05-25T23:44:11.820Z,90.04
2023-05-25T23:46:39.896Z,89.24
2023-05-25T23:49:09.263Z,90.24
2023-05-25T23:51:37.604Z,88.96
2023-05-25T23:54:06.873Z,88.99
2023-05-25T23:56:34.794Z,89.56
2023-05-25T23:59:02.728Z,90.11
